sensor_id;sensor_type;location;lat;lon;timestamp;P1;durP1;ratioP1;P2;durP2;ratioP2
12048;SDS011;6085;49.452;8.502;2023-02-04T00:01:05;1.95;;;1.45;;
12048;SDS011;6085;49.452;8.502;2023-02-04T00:05:07;2.10;;;1.50;;
12048;SDS011;6085;49.452;8.502;2023-02-04T00:09:11;2.63;;;1.40;;
12048;SDS011;6085;49.452;8.502;2023-02-04T00:13:15;1.00;;;1.00;;
12048;SDS011;6085;49.452;8.502;2023-02-04T00:17:17;1.40;;;1.30;;
12048;SDS011;6085;49.452;8.502;2023-02-04T00:21:19;1.60;;;1.48;;
12048;SDS011;6085;49.452;8.502;2023-02-04T00:25:22;2.10;;;1.75;;
12048;SDS011;6085;49.452;8.502;2023-02-04T00:29:24;1.63;;;1.20;;
12048;SDS011;6085;49.452;8.502;2023-02-04T00:33:26;1.30;;;1.20;;
12048;SDS011;6085;49.452;8.502;2023-02-04T00:37:28;1.40;;;1.15;;
12048;SDS011;6085;49.452;8.502;2023-02-04T00:41:31;1.50;;;1.40;;
12048;SDS011;6085;49.452;8.502;2023-02-04T00:45:33;3.63;;;1.50;;
12048;SDS011;6085;49.452;8.502;2023-02-04T00:49:35;4.80;;;1.50;;
12048;SDS011;6085;49.452;8.502;2023-02-04T00:53:37;1.98;;;1.00;;
12048;SDS011;6085;49.452;8.502;2023-02-04T00:57:40;2.47;;;1.35;;
12048;SDS011;6085;49.452;8.502;2023-02-04T01:01:42;3.03;;;1.58;;
12048;SDS011;6085;49.452;8.502;2023-02-04T01:05:44;1.95;;;1.40;;
12048;SDS011;6085;49.452;8.502;2023-02-04T01:09:46;2.72;;;1.20;;
12048;SDS011;6085;49.452;8.502;2023-02-04T01:13:49;4.03;;;1.50;;
12048;SDS011;6085;49.452;8.502;2023-02-04T01:17:51;3.78;;;1.60;;
12048;SDS011;6085;49.452;8.502;2023-02-04T01:21:53;4.05;;;1.60;;
12048;SDS011;6085;49.452;8.502;2023-02-04T01:25:55;2.80;;;1.65;;
12048;SDS011;6085;49.452;8.502;2023-02-04T01:29:58;5.10;;;2.08;;
12048;SDS011;6085;49.452;8.502;2023-02-04T01:34:00;6.38;;;2.50;;
12048;SDS011;6085;49.452;8.502;2023-02-04T01:38:02;4.57;;;2.17;;
12048;SDS011;6085;49.452;8.502;2023-02-04T01:42:04;7.35;;;2.10;;
12048;SDS011;6085;49.452;8.502;2023-02-04T01:46:08;8.50;;;2.10;;
12048;SDS011;6085;49.452;8.502;2023-02-04T01:50:10;6.63;;;2.55;;
12048;SDS011;6085;49.452;8.502;2023-02-04T01:54:14;8.48;;;2.33;;
12048;SDS011;6085;49.452;8.502;2023-02-04T01:58:17;3.83;;;1.98;;
12048;SDS011;6085;49.452;8.502;2023-02-04T02:02:37;4.38;;;1.92;;
12048;SDS011;6085;49.452;8.502;2023-02-04T02:06:41;5.90;;;2.15;;
12048;SDS011;6085;49.452;8.502;2023-02-04T02:10:47;5.38;;;2.00;;
12048;SDS011;6085;49.452;8.502;2023-02-04T02:14:49;10.38;;;2.67;;
12048;SDS011;6085;49.452;8.502;2023-02-04T02:18:52;7.40;;;2.42;;
12048;SDS011;6085;49.452;8.502;2023-02-04T02:22:58;6.63;;;2.20;;
12048;SDS011;6085;49.452;8.502;2023-02-04T02:27:06;6.75;;;2.45;;
12048;SDS011;6085;49.452;8.502;2023-02-04T02:31:10;8.38;;;2.55;;
12048;SDS011;6085;49.452;8.502;2023-02-04T02:35:12;5.60;;;2.60;;
12048;SDS011;6085;49.452;8.502;2023-02-04T02:39:15;7.47;;;2.92;;
12048;SDS011;6085;49.452;8.502;2023-02-04T02:43:20;9.52;;;2.58;;
12048;SDS011;6085;49.452;8.502;2023-02-04T02:47:25;8.60;;;2.72;;
12048;SDS011;6085;49.452;8.502;2023-02-04T02:51:27;10.70;;;2.80;;
12048;SDS011;6085;49.452;8.502;2023-02-04T02:55:30;7.88;;;2.53;;
12048;SDS011;6085;49.452;8.502;2023-02-04T02:59:33;9.52;;;3.03;;
12048;SDS011;6085;49.452;8.502;2023-02-04T03:03:36;2.85;;;1.70;;
12048;SDS011;6085;49.452;8.502;2023-02-04T03:07:41;5.32;;;1.80;;
12048;SDS011;6085;49.452;8.502;2023-02-04T03:11:43;4.70;;;1.58;;
12048;SDS011;6085;49.452;8.502;2023-02-04T03:15:46;5.20;;;1.58;;
12048;SDS011;6085;49.452;8.502;2023-02-04T03:19:49;3.35;;;1.50;;
12048;SDS011;6085;49.452;8.502;2023-02-04T03:23:51;5.93;;;1.50;;
12048;SDS011;6085;49.452;8.502;2023-02-04T03:27:55;7.57;;;1.90;;
12048;SDS011;6085;49.452;8.502;2023-02-04T03:32:00;5.38;;;1.90;;
12048;SDS011;6085;49.452;8.502;2023-02-04T03:36:05;4.55;;;1.80;;
12048;SDS011;6085;49.452;8.502;2023-02-04T03:40:08;3.15;;;1.27;;
12048;SDS011;6085;49.452;8.502;2023-02-04T03:44:11;5.38;;;1.80;;
12048;SDS011;6085;49.452;8.502;2023-02-04T03:48:15;6.40;;;2.00;;
12048;SDS011;6085;49.452;8.502;2023-02-04T03:52:17;6.82;;;2.15;;
12048;SDS011;6085;49.452;8.502;2023-02-04T03:56:20;6.18;;;1.95;;
12048;SDS011;6085;49.452;8.502;2023-02-04T04:00:22;9.48;;;2.45;;
12048;SDS011;6085;49.452;8.502;2023-02-04T04:04:25;7.68;;;1.90;;
12048;SDS011;6085;49.452;8.502;2023-02-04T04:08:27;4.22;;;1.88;;
12048;SDS011;6085;49.452;8.502;2023-02-04T04:12:29;7.07;;;1.95;;
12048;SDS011;6085;49.452;8.502;2023-02-04T04:16:31;5.45;;;1.90;;
12048;SDS011;6085;49.452;8.502;2023-02-04T04:20:35;8.20;;;2.05;;
12048;SDS011;6085;49.452;8.502;2023-02-04T04:24:37;4.07;;;1.88;;
12048;SDS011;6085;49.452;8.502;2023-02-04T04:28:39;3.45;;;1.80;;
12048;SDS011;6085;49.452;8.502;2023-02-04T04:32:41;4.65;;;2.08;;
12048;SDS011;6085;49.452;8.502;2023-02-04T04:36:44;7.43;;;2.00;;
12048;SDS011;6085;49.452;8.502;2023-02-04T04:40:46;7.47;;;2.65;;
12048;SDS011;6085;49.452;8.502;2023-02-04T04:44:47;8.63;;;2.22;;
12048;SDS011;6085;49.452;8.502;2023-02-04T04:48:50;8.60;;;2.80;;
12048;SDS011;6085;49.452;8.502;2023-02-04T04:52:53;6.95;;;2.38;;
12048;SDS011;6085;49.452;8.502;2023-02-04T04:56:55;7.82;;;2.50;;
12048;SDS011;6085;49.452;8.502;2023-02-04T05:00:57;4.00;;;1.90;;
12048;SDS011;6085;49.452;8.502;2023-02-04T05:04:58;5.70;;;2.40;;
12048;SDS011;6085;49.452;8.502;2023-02-04T05:09:02;5.65;;;2.55;;
12048;SDS011;6085;49.452;8.502;2023-02-04T05:13:04;6.07;;;2.50;;
12048;SDS011;6085;49.452;8.502;2023-02-04T05:17:06;5.80;;;2.35;;
12048;SDS011;6085;49.452;8.502;2023-02-04T05:21:07;5.72;;;3.00;;
12048;SDS011;6085;49.452;8.502;2023-02-04T05:25:11;8.13;;;2.67;;
12048;SDS011;6085;49.452;8.502;2023-02-04T05:29:13;6.60;;;2.58;;
12048;SDS011;6085;49.452;8.502;2023-02-04T05:33:14;6.72;;;3.55;;
12048;SDS011;6085;49.452;8.502;2023-02-04T05:37:16;7.68;;;2.78;;
12048;SDS011;6085;49.452;8.502;2023-02-04T05:41:21;7.43;;;2.92;;
12048;SDS011;6085;49.452;8.502;2023-02-04T05:45:23;6.45;;;3.10;;
12048;SDS011;6085;49.452;8.502;2023-02-04T05:49:25;5.55;;;3.03;;
12048;SDS011;6085;49.452;8.502;2023-02-04T05:53:27;9.27;;;3.03;;
12048;SDS011;6085;49.452;8.502;2023-02-04T05:57:30;6.22;;;2.80;;
12048;SDS011;6085;49.452;8.502;2023-02-04T06:01:32;6.78;;;3.05;;
12048;SDS011;6085;49.452;8.502;2023-02-04T06:05:34;9.20;;;3.15;;
12048;SDS011;6085;49.452;8.502;2023-02-04T06:09:36;11.80;;;4.15;;
12048;SDS011;6085;49.452;8.502;2023-02-04T06:13:39;8.40;;;3.30;;
12048;SDS011;6085;49.452;8.502;2023-02-04T06:17:41;7.40;;;3.00;;
12048;SDS011;6085;49.452;8.502;2023-02-04T06:21:43;9.10;;;3.75;;
12048;SDS011;6085;49.452;8.502;2023-02-04T06:25:45;9.45;;;3.00;;
12048;SDS011;6085;49.452;8.502;2023-02-04T06:29:50;10.80;;;3.45;;
12048;SDS011;6085;49.452;8.502;2023-02-04T06:33:52;9.38;;;2.97;;
12048;SDS011;6085;49.452;8.502;2023-02-04T06:37:54;10.48;;;3.40;;
12048;SDS011;6085;49.452;8.502;2023-02-04T06:41:56;7.38;;;3.53;;
12048;SDS011;6085;49.452;8.502;2023-02-04T06:46:00;8.05;;;2.85;;
12048;SDS011;6085;49.452;8.502;2023-02-04T06:50:01;5.72;;;3.45;;
12048;SDS011;6085;49.452;8.502;2023-02-04T06:54:03;8.65;;;3.25;;
12048;SDS011;6085;49.452;8.502;2023-02-04T06:58:05;9.25;;;3.65;;
12048;SDS011;6085;49.452;8.502;2023-02-04T07:02:09;9.82;;;3.47;;
12048;SDS011;6085;49.452;8.502;2023-02-04T07:06:11;9.90;;;3.60;;
12048;SDS011;6085;49.452;8.502;2023-02-04T07:10:13;9.27;;;3.05;;
12048;SDS011;6085;49.452;8.502;2023-02-04T07:14:15;9.75;;;3.17;;
12048;SDS011;6085;49.452;8.502;2023-02-04T07:18:19;5.97;;;3.08;;
12048;SDS011;6085;49.452;8.502;2023-02-04T07:22:21;7.80;;;3.38;;
12048;SDS011;6085;49.452;8.502;2023-02-04T07:26:23;6.28;;;3.30;;
12048;SDS011;6085;49.452;8.502;2023-02-04T07:30:25;7.00;;;3.47;;
12048;SDS011;6085;49.452;8.502;2023-02-04T07:34:28;9.35;;;3.75;;
12048;SDS011;6085;49.452;8.502;2023-02-04T07:38:30;12.07;;;3.78;;
12048;SDS011;6085;49.452;8.502;2023-02-04T07:42:32;10.63;;;3.90;;
12048;SDS011;6085;49.452;8.502;2023-02-04T07:46:34;12.38;;;4.40;;
12048;SDS011;6085;49.452;8.502;2023-02-04T07:50:38;5.68;;;3.33;;
12048;SDS011;6085;49.452;8.502;2023-02-04T07:54:40;9.80;;;3.47;;
12048;SDS011;6085;49.452;8.502;2023-02-04T07:58:42;8.85;;;3.80;;
12048;SDS011;6085;49.452;8.502;2023-02-04T08:02:43;12.63;;;3.95;;
12048;SDS011;6085;49.452;8.502;2023-02-04T08:06:47;12.20;;;4.15;;
12048;SDS011;6085;49.452;8.502;2023-02-04T08:10:48;9.63;;;3.83;;
12048;SDS011;6085;49.452;8.502;2023-02-04T08:14:51;13.48;;;4.55;;
12048;SDS011;6085;49.452;8.502;2023-02-04T08:18:52;9.05;;;3.20;;
12048;SDS011;6085;49.452;8.502;2023-02-04T08:22:56;10.20;;;3.85;;
12048;SDS011;6085;49.452;8.502;2023-02-04T08:26:58;13.60;;;3.90;;
12048;SDS011;6085;49.452;8.502;2023-02-04T08:31:00;15.68;;;4.13;;
12048;SDS011;6085;49.452;8.502;2023-02-04T08:35:02;12.20;;;4.35;;
12048;SDS011;6085;49.452;8.502;2023-02-04T08:39:06;11.00;;;4.38;;
12048;SDS011;6085;49.452;8.502;2023-02-04T08:43:08;16.05;;;5.10;;
12048;SDS011;6085;49.452;8.502;2023-02-04T08:47:10;10.00;;;3.50;;
12048;SDS011;6085;49.452;8.502;2023-02-04T08:51:12;8.52;;;3.90;;
12048;SDS011;6085;49.452;8.502;2023-02-04T08:55:16;13.00;;;4.03;;
12048;SDS011;6085;49.452;8.502;2023-02-04T08:59:17;12.70;;;3.67;;
12048;SDS011;6085;49.452;8.502;2023-02-04T09:03:20;8.85;;;3.05;;
12048;SDS011;6085;49.452;8.502;2023-02-04T09:07:22;11.00;;;3.50;;
12048;SDS011;6085;49.452;8.502;2023-02-04T09:11:26;10.93;;;3.22;;
12048;SDS011;6085;49.452;8.502;2023-02-04T09:15:27;8.95;;;3.03;;
12048;SDS011;6085;49.452;8.502;2023-02-04T09:19:29;14.63;;;3.40;;
12048;SDS011;6085;49.452;8.502;2023-02-04T09:23:35;8.80;;;3.45;;
12048;SDS011;6085;49.452;8.502;2023-02-04T09:27:40;9.52;;;3.13;;
12048;SDS011;6085;49.452;8.502;2023-02-04T09:31:43;8.77;;;3.25;;
12048;SDS011;6085;49.452;8.502;2023-02-04T09:35:45;10.30;;;3.55;;
12048;SDS011;6085;49.452;8.502;2023-02-04T09:39:47;10.70;;;2.72;;
12048;SDS011;6085;49.452;8.502;2023-02-04T09:43:59;9.68;;;2.92;;
12048;SDS011;6085;49.452;8.502;2023-02-04T09:48:02;8.25;;;2.38;;
12048;SDS011;6085;49.452;8.502;2023-02-04T09:52:08;9.57;;;2.78;;
12048;SDS011;6085;49.452;8.502;2023-02-04T09:56:12;9.93;;;2.97;;
12048;SDS011;6085;49.452;8.502;2023-02-04T10:00:17;7.13;;;2.58;;
12048;SDS011;6085;49.452;8.502;2023-02-04T10:04:21;8.85;;;2.75;;
12048;SDS011;6085;49.452;8.502;2023-02-04T10:08:25;10.25;;;2.60;;
12048;SDS011;6085;49.452;8.502;2023-02-04T10:12:30;5.85;;;2.25;;
12048;SDS011;6085;49.452;8.502;2023-02-04T10:16:38;12.10;;;2.40;;
12048;SDS011;6085;49.452;8.502;2023-02-04T10:20:42;9.68;;;2.70;;
12048;SDS011;6085;49.452;8.502;2023-02-04T10:24:46;9.00;;;2.78;;
12048;SDS011;6085;49.452;8.502;2023-02-04T10:28:59;8.93;;;2.67;;
12048;SDS011;6085;49.452;8.502;2023-02-04T10:33:12;5.93;;;2.17;;
12048;SDS011;6085;49.452;8.502;2023-02-04T10:37:17;9.02;;;2.08;;
12048;SDS011;6085;49.452;8.502;2023-02-04T10:41:20;6.35;;;2.17;;
12048;SDS011;6085;49.452;8.502;2023-02-04T10:45:23;5.28;;;2.15;;
12048;SDS011;6085;49.452;8.502;2023-02-04T10:49:28;8.00;;;2.20;;
12048;SDS011;6085;49.452;8.502;2023-02-04T10:53:30;6.60;;;2.45;;
12048;SDS011;6085;49.452;8.502;2023-02-04T10:57:50;8.73;;;2.55;;
12048;SDS011;6085;49.452;8.502;2023-02-04T11:01:53;8.38;;;2.40;;
12048;SDS011;6085;49.452;8.502;2023-02-04T11:05:58;10.05;;;2.70;;
12048;SDS011;6085;49.452;8.502;2023-02-04T11:10:02;10.00;;;2.42;;
12048;SDS011;6085;49.452;8.502;2023-02-04T11:14:04;8.00;;;2.47;;
12048;SDS011;6085;49.452;8.502;2023-02-04T11:18:26;6.72;;;2.03;;
12048;SDS011;6085;49.452;8.502;2023-02-04T11:22:39;9.52;;;2.50;;
12048;SDS011;6085;49.452;8.502;2023-02-04T11:26:43;8.52;;;2.53;;
12048;SDS011;6085;49.452;8.502;2023-02-04T11:30:57;10.27;;;2.60;;
12048;SDS011;6085;49.452;8.502;2023-02-04T11:35:07;9.15;;;3.03;;
12048;SDS011;6085;49.452;8.502;2023-02-04T11:39:26;10.73;;;2.58;;
12048;SDS011;6085;49.452;8.502;2023-02-04T11:43:32;8.20;;;2.22;;
12048;SDS011;6085;49.452;8.502;2023-02-04T11:47:36;9.77;;;2.70;;
12048;SDS011;6085;49.452;8.502;2023-02-04T11:51:39;6.93;;;2.17;;
12048;SDS011;6085;49.452;8.502;2023-02-04T11:55:45;6.95;;;2.67;;
12048;SDS011;6085;49.452;8.502;2023-02-04T11:59:47;8.65;;;2.50;;
12048;SDS011;6085;49.452;8.502;2023-02-04T12:03:54;7.45;;;2.33;;
12048;SDS011;6085;49.452;8.502;2023-02-04T12:08:07;6.40;;;2.17;;
12048;SDS011;6085;49.452;8.502;2023-02-04T12:12:21;6.00;;;2.00;;
12048;SDS011;6085;49.452;8.502;2023-02-04T12:16:24;8.57;;;2.50;;
12048;SDS011;6085;49.452;8.502;2023-02-04T12:20:26;5.95;;;2.40;;
12048;SDS011;6085;49.452;8.502;2023-02-04T12:24:28;5.93;;;2.30;;
12048;SDS011;6085;49.452;8.502;2023-02-04T12:28:31;5.65;;;2.15;;
12048;SDS011;6085;49.452;8.502;2023-02-04T12:32:33;7.38;;;2.55;;
12048;SDS011;6085;49.452;8.502;2023-02-04T12:36:35;5.97;;;2.20;;
12048;SDS011;6085;49.452;8.502;2023-02-04T12:40:37;5.78;;;2.10;;
12048;SDS011;6085;49.452;8.502;2023-02-04T12:44:40;5.32;;;2.20;;
12048;SDS011;6085;49.452;8.502;2023-02-04T12:48:41;3.83;;;2.10;;
12048;SDS011;6085;49.452;8.502;2023-02-04T12:52:43;6.78;;;2.55;;
12048;SDS011;6085;49.452;8.502;2023-02-04T12:56:45;6.55;;;2.05;;
12048;SDS011;6085;49.452;8.502;2023-02-04T13:00:49;4.88;;;2.13;;
12048;SDS011;6085;49.452;8.502;2023-02-04T13:04:51;5.15;;;1.67;;
12048;SDS011;6085;49.452;8.502;2023-02-04T13:08:53;5.18;;;1.77;;
12048;SDS011;6085;49.452;8.502;2023-02-04T13:12:55;5.68;;;1.88;;
12048;SDS011;6085;49.452;8.502;2023-02-04T13:16:58;7.43;;;2.22;;
12048;SDS011;6085;49.452;8.502;2023-02-04T13:21:00;8.52;;;2.30;;
12048;SDS011;6085;49.452;8.502;2023-02-04T13:25:02;5.63;;;1.42;;
12048;SDS011;6085;49.452;8.502;2023-02-04T13:29:05;5.28;;;1.73;;
12048;SDS011;6085;49.452;8.502;2023-02-04T13:33:08;6.10;;;1.92;;
12048;SDS011;6085;49.452;8.502;2023-02-04T13:37:10;5.93;;;1.60;;
12048;SDS011;6085;49.452;8.502;2023-02-04T13:41:12;5.78;;;1.85;;
12048;SDS011;6085;49.452;8.502;2023-02-04T13:45:14;4.13;;;1.70;;
12048;SDS011;6085;49.452;8.502;2023-02-04T13:49:19;6.30;;;1.80;;
12048;SDS011;6085;49.452;8.502;2023-02-04T13:53:21;4.93;;;1.58;;
12048;SDS011;6085;49.452;8.502;2023-02-04T13:57:24;5.10;;;1.83;;
12048;SDS011;6085;49.452;8.502;2023-02-04T14:01:26;5.50;;;1.75;;
12048;SDS011;6085;49.452;8.502;2023-02-04T14:05:30;5.10;;;2.05;;
12048;SDS011;6085;49.452;8.502;2023-02-04T14:09:32;6.13;;;1.90;;
12048;SDS011;6085;49.452;8.502;2023-02-04T14:13:34;6.05;;;1.90;;
12048;SDS011;6085;49.452;8.502;2023-02-04T14:17:35;4.90;;;1.92;;
12048;SDS011;6085;49.452;8.502;2023-02-04T14:21:39;7.38;;;2.00;;
12048;SDS011;6085;49.452;8.502;2023-02-04T14:25:40;4.93;;;1.80;;
12048;SDS011;6085;49.452;8.502;2023-02-04T14:29:45;7.43;;;1.80;;
12048;SDS011;6085;49.452;8.502;2023-02-04T14:33:48;5.15;;;1.80;;
12048;SDS011;6085;49.452;8.502;2023-02-04T14:37:51;6.00;;;1.83;;
12048;SDS011;6085;49.452;8.502;2023-02-04T14:41:53;5.03;;;1.92;;
12048;SDS011;6085;49.452;8.502;2023-02-04T14:45:55;4.55;;;1.65;;
12048;SDS011;6085;49.452;8.502;2023-02-04T14:49:57;4.20;;;1.63;;
12048;SDS011;6085;49.452;8.502;2023-02-04T14:54:00;4.70;;;1.80;;
12048;SDS011;6085;49.452;8.502;2023-02-04T14:58:02;4.60;;;2.05;;
12048;SDS011;6085;49.452;8.502;2023-02-04T15:02:05;5.18;;;1.90;;
12048;SDS011;6085;49.452;8.502;2023-02-04T15:06:07;4.45;;;1.85;;
12048;SDS011;6085;49.452;8.502;2023-02-04T15:10:11;3.72;;;1.65;;
12048;SDS011;6085;49.452;8.502;2023-02-04T15:14:13;4.60;;;1.80;;
12048;SDS011;6085;49.452;8.502;2023-02-04T15:18:15;6.25;;;2.20;;
12048;SDS011;6085;49.452;8.502;2023-02-04T15:22:16;4.72;;;1.75;;
12048;SDS011;6085;49.452;8.502;2023-02-04T15:26:20;5.75;;;2.00;;
12048;SDS011;6085;49.452;8.502;2023-02-04T15:30:24;7.32;;;2.28;;
12048;SDS011;6085;49.452;8.502;2023-02-04T15:34:25;5.30;;;1.73;;
12048;SDS011;6085;49.452;8.502;2023-02-04T15:38:27;5.45;;;1.90;;
12048;SDS011;6085;49.452;8.502;2023-02-04T15:42:30;7.43;;;2.58;;
12048;SDS011;6085;49.452;8.502;2023-02-04T15:46:33;5.57;;;2.03;;
12048;SDS011;6085;49.452;8.502;2023-02-04T15:50:35;7.40;;;1.90;;
12048;SDS011;6085;49.452;8.502;2023-02-04T15:54:37;5.35;;;1.83;;
12048;SDS011;6085;49.452;8.502;2023-02-04T15:58:40;3.13;;;1.50;;
12048;SDS011;6085;49.452;8.502;2023-02-04T16:02:42;4.10;;;2.00;;
12048;SDS011;6085;49.452;8.502;2023-02-04T16:06:44;5.97;;;2.30;;
12048;SDS011;6085;49.452;8.502;2023-02-04T16:10:46;2.28;;;1.48;;
12048;SDS011;6085;49.452;8.502;2023-02-04T16:14:49;6.10;;;2.17;;
12048;SDS011;6085;49.452;8.502;2023-02-04T16:18:51;3.95;;;1.60;;
12048;SDS011;6085;49.452;8.502;2023-02-04T16:22:53;5.60;;;1.88;;
12048;SDS011;6085;49.452;8.502;2023-02-04T16:26:55;5.25;;;1.98;;
12048;SDS011;6085;49.452;8.502;2023-02-04T16:30:58;6.88;;;2.00;;
12048;SDS011;6085;49.452;8.502;2023-02-04T16:35:00;12.85;;;5.82;;
12048;SDS011;6085;49.452;8.502;2023-02-04T16:39:03;13.07;;;7.35;;
12048;SDS011;6085;49.452;8.502;2023-02-04T16:43:05;11.43;;;5.00;;
12048;SDS011;6085;49.452;8.502;2023-02-04T16:47:08;6.43;;;2.28;;
12048;SDS011;6085;49.452;8.502;2023-02-04T16:51:10;6.47;;;2.20;;
12048;SDS011;6085;49.452;8.502;2023-02-04T16:55:12;4.30;;;1.88;;
12048;SDS011;6085;49.452;8.502;2023-02-04T16:59:14;8.98;;;2.83;;
12048;SDS011;6085;49.452;8.502;2023-02-04T17:03:17;7.80;;;3.08;;
12048;SDS011;6085;49.452;8.502;2023-02-04T17:07:19;5.63;;;2.70;;
12048;SDS011;6085;49.452;8.502;2023-02-04T17:11:22;8.35;;;2.83;;
12048;SDS011;6085;49.452;8.502;2023-02-04T17:15:30;5.03;;;2.70;;
12048;SDS011;6085;49.452;8.502;2023-02-04T17:19:34;6.88;;;2.95;;
12048;SDS011;6085;49.452;8.502;2023-02-04T17:23:35;9.57;;;3.40;;
12048;SDS011;6085;49.452;8.502;2023-02-04T17:27:37;7.05;;;2.80;;
12048;SDS011;6085;49.452;8.502;2023-02-04T17:31:39;6.57;;;2.83;;
12048;SDS011;6085;49.452;8.502;2023-02-04T17:35:43;4.63;;;2.30;;
12048;SDS011;6085;49.452;8.502;2023-02-04T17:39:45;4.20;;;2.15;;
12048;SDS011;6085;49.452;8.502;2023-02-04T17:43:47;5.95;;;2.30;;
12048;SDS011;6085;49.452;8.502;2023-02-04T17:47:49;6.80;;;2.65;;
12048;SDS011;6085;49.452;8.502;2023-02-04T17:51:52;5.95;;;2.78;;
12048;SDS011;6085;49.452;8.502;2023-02-04T17:55:54;7.40;;;3.10;;
12048;SDS011;6085;49.452;8.502;2023-02-04T17:59:56;9.45;;;2.67;;
12048;SDS011;6085;49.452;8.502;2023-02-04T18:03:58;9.65;;;3.35;;
12048;SDS011;6085;49.452;8.502;2023-02-04T18:08:03;9.50;;;3.80;;
12048;SDS011;6085;49.452;8.502;2023-02-04T18:12:14;10.27;;;4.10;;
12048;SDS011;6085;49.452;8.502;2023-02-04T18:16:21;9.65;;;3.60;;
12048;SDS011;6085;49.452;8.502;2023-02-04T18:20:25;9.77;;;4.00;;
12048;SDS011;6085;49.452;8.502;2023-02-04T18:24:31;7.75;;;4.28;;
12048;SDS011;6085;49.452;8.502;2023-02-04T18:28:35;8.52;;;4.15;;
12048;SDS011;6085;49.452;8.502;2023-02-04T18:32:41;6.07;;;4.43;;
12048;SDS011;6085;49.452;8.502;2023-02-04T18:36:43;10.63;;;3.88;;
12048;SDS011;6085;49.452;8.502;2023-02-04T18:40:47;6.57;;;3.53;;
12048;SDS011;6085;49.452;8.502;2023-02-04T18:44:49;7.45;;;3.08;;
12048;SDS011;6085;49.452;8.502;2023-02-04T18:49:01;5.97;;;3.55;;
12048;SDS011;6085;49.452;8.502;2023-02-04T18:53:06;6.13;;;3.10;;
12048;SDS011;6085;49.452;8.502;2023-02-04T18:57:37;5.38;;;2.95;;
12048;SDS011;6085;49.452;8.502;2023-02-04T19:01:39;8.10;;;3.17;;
12048;SDS011;6085;49.452;8.502;2023-02-04T19:05:41;5.68;;;3.40;;
12048;SDS011;6085;49.452;8.502;2023-02-04T19:09:47;6.80;;;2.78;;
12048;SDS011;6085;49.452;8.502;2023-02-04T19:13:51;7.20;;;2.63;;
12048;SDS011;6085;49.452;8.502;2023-02-04T19:17:57;3.47;;;2.13;;
12048;SDS011;6085;49.452;8.502;2023-02-04T19:26:32;4.10;;;2.17;;
12048;SDS011;6085;49.452;8.502;2023-02-04T19:30:42;6.28;;;2.28;;
12048;SDS011;6085;49.452;8.502;2023-02-04T19:34:45;4.72;;;2.55;;
12048;SDS011;6085;49.452;8.502;2023-02-04T19:38:47;4.00;;;2.20;;
12048;SDS011;6085;49.452;8.502;2023-02-04T19:42:57;5.68;;;2.53;;
12048;SDS011;6085;49.452;8.502;2023-02-04T19:47:19;5.30;;;2.53;;
12048;SDS011;6085;49.452;8.502;2023-02-04T19:51:25;5.47;;;2.70;;
12048;SDS011;6085;49.452;8.502;2023-02-04T19:55:32;3.72;;;2.30;;
12048;SDS011;6085;49.452;8.502;2023-02-04T19:59:36;5.88;;;2.95;;
12048;SDS011;6085;49.452;8.502;2023-02-04T20:03:40;4.65;;;2.50;;
12048;SDS011;6085;49.452;8.502;2023-02-04T20:07:42;3.42;;;2.30;;
12048;SDS011;6085;49.452;8.502;2023-02-04T20:11:47;7.18;;;3.80;;
12048;SDS011;6085;49.452;8.502;2023-02-04T20:15:56;5.05;;;2.78;;
12048;SDS011;6085;49.452;8.502;2023-02-04T20:20:05;3.85;;;2.60;;
12048;SDS011;6085;49.452;8.502;2023-02-04T20:24:19;4.95;;;2.50;;
12048;SDS011;6085;49.452;8.502;2023-02-04T20:32:43;6.00;;;3.28;;
12048;SDS011;6085;49.452;8.502;2023-02-04T20:36:48;3.50;;;2.72;;
12048;SDS011;6085;49.452;8.502;2023-02-04T20:40:51;4.60;;;2.42;;
12048;SDS011;6085;49.452;8.502;2023-02-04T20:44:53;3.58;;;2.47;;
12048;SDS011;6085;49.452;8.502;2023-02-04T20:48:55;4.93;;;2.20;;
12048;SDS011;6085;49.452;8.502;2023-02-04T20:53:04;2.08;;;1.88;;
12048;SDS011;6085;49.452;8.502;2023-02-04T20:57:10;3.75;;;2.40;;
12048;SDS011;6085;49.452;8.502;2023-02-04T21:01:18;4.10;;;2.40;;
12048;SDS011;6085;49.452;8.502;2023-02-04T21:05:25;3.70;;;2.38;;
12048;SDS011;6085;49.452;8.502;2023-02-04T21:09:29;3.17;;;2.15;;
12048;SDS011;6085;49.452;8.502;2023-02-04T21:13:33;4.63;;;2.95;;
12048;SDS011;6085;49.452;8.502;2023-02-04T21:17:36;5.70;;;3.03;;
12048;SDS011;6085;49.452;8.502;2023-02-04T21:21:38;3.35;;;2.50;;
12048;SDS011;6085;49.452;8.502;2023-02-04T21:25:41;3.83;;;2.38;;
12048;SDS011;6085;49.452;8.502;2023-02-04T21:29:43;3.33;;;2.60;;
12048;SDS011;6085;49.452;8.502;2023-02-04T21:33:44;3.80;;;2.55;;
12048;SDS011;6085;49.452;8.502;2023-02-04T21:37:46;6.10;;;2.83;;
12048;SDS011;6085;49.452;8.502;2023-02-04T21:41:50;3.47;;;2.47;;
12048;SDS011;6085;49.452;8.502;2023-02-04T21:46:09;4.47;;;2.22;;
12048;SDS011;6085;49.452;8.502;2023-02-04T21:50:11;5.00;;;2.88;;
12048;SDS011;6085;49.452;8.502;2023-02-04T21:54:14;5.10;;;2.42;;
12048;SDS011;6085;49.452;8.502;2023-02-04T21:58:18;5.40;;;2.80;;
12048;SDS011;6085;49.452;8.502;2023-02-04T22:02:20;5.97;;;2.50;;
12048;SDS011;6085;49.452;8.502;2023-02-04T22:06:23;4.28;;;2.35;;
12048;SDS011;6085;49.452;8.502;2023-02-04T22:10:24;6.57;;;3.10;;
12048;SDS011;6085;49.452;8.502;2023-02-04T22:14:28;8.20;;;3.20;;
12048;SDS011;6085;49.452;8.502;2023-02-04T22:18:29;3.47;;;2.72;;
12048;SDS011;6085;49.452;8.502;2023-02-04T22:22:32;5.28;;;3.13;;
12048;SDS011;6085;49.452;8.502;2023-02-04T22:26:33;5.72;;;3.65;;
12048;SDS011;6085;49.452;8.502;2023-02-04T22:30:37;6.22;;;2.88;;
12048;SDS011;6085;49.452;8.502;2023-02-04T22:34:39;5.55;;;3.55;;
12048;SDS011;6085;49.452;8.502;2023-02-04T22:38:40;7.25;;;3.60;;
12048;SDS011;6085;49.452;8.502;2023-02-04T22:42:43;5.97;;;3.45;;
12048;SDS011;6085;49.452;8.502;2023-02-04T22:46:46;3.78;;;3.10;;
12048;SDS011;6085;49.452;8.502;2023-02-04T22:50:48;7.38;;;3.40;;
12048;SDS011;6085;49.452;8.502;2023-02-04T22:54:50;4.70;;;3.35;;
12048;SDS011;6085;49.452;8.502;2023-02-04T22:58:52;5.00;;;3.58;;
12048;SDS011;6085;49.452;8.502;2023-02-04T23:02:56;7.93;;;5.00;;
12048;SDS011;6085;49.452;8.502;2023-02-04T23:06:58;9.40;;;5.30;;
12048;SDS011;6085;49.452;8.502;2023-02-04T23:11:03;5.10;;;3.30;;
12048;SDS011;6085;49.452;8.502;2023-02-04T23:15:05;5.10;;;3.00;;
12048;SDS011;6085;49.452;8.502;2023-02-04T23:19:09;3.67;;;2.55;;
12048;SDS011;6085;49.452;8.502;2023-02-04T23:23:11;4.00;;;2.25;;
12048;SDS011;6085;49.452;8.502;2023-02-04T23:27:16;4.43;;;2.42;;
12048;SDS011;6085;49.452;8.502;2023-02-04T23:31:18;3.33;;;2.30;;
12048;SDS011;6085;49.452;8.502;2023-02-04T23:35:21;3.40;;;2.35;;
12048;SDS011;6085;49.452;8.502;2023-02-04T23:39:23;3.72;;;2.20;;
12048;SDS011;6085;49.452;8.502;2023-02-04T23:43:26;4.43;;;2.20;;
12048;SDS011;6085;49.452;8.502;2023-02-04T23:47:28;7.35;;;2.40;;
12048;SDS011;6085;49.452;8.502;2023-02-04T23:51:31;4.85;;;2.90;;
12048;SDS011;6085;49.452;8.502;2023-02-04T23:55:34;4.18;;;2.47;;
12048;SDS011;6085;49.452;8.502;2023-02-04T23:59:35;3.90;;;2.42;;
